Time;durP1;ratioP1;P1;durP2;ratioP2;P2;SDS_P1;SDS_P2;PMS_P1;PMS_P2;Temp;Humidity;BMP_temperature;BMP_pressure;BME280_temperature;BME280_humidity;BME280_pressure;Samples;Min_cycle;Max_cycle;Signal;HPM_P1;HPM_P2
2022/05/15 00:02:25;;;;;;;13.07;8.33;;;;;;;;;;5024975;28;20206;-74
2022/05/15 00:04:52;;;;;;;14.73;8.73;;;;;;;;;;5022361;28;20719;-74
2022/05/15 00:07:19;;;;;;;12.50;8.17;;;;;;;;;;5026136;28;20299;-74
2022/05/15 00:09:47;;;;;;;14.50;8.50;;;;;;;;;;5024679;28;20291;-74
2022/05/15 00:12:16;;;;;;;16.37;8.47;;;;;;;;;;5024385;28;20204;-74
2022/05/15 00:14:43;;;;;;;15.27;9.00;;;;;;;;;;5021645;28;20226;-74
2022/05/15 00:17:10;;;;;;;19.40;8.87;;;;;;;;;;5026238;28;20243;-74
2022/05/15 00:19:39;;;;;;;17.13;8.60;;;;;;;;;;5022502;28;20200;-74
2022/05/15 00:22:06;;;;;;;17.73;8.93;;;;;;;;;;5024130;28;20290;-74
2022/05/15 00:24:34;;;;;;;14.60;8.23;;;;;;;;;;5023837;28;20258;-74
2022/05/15 00:27:01;;;;;;;13.90;8.60;;;;;;;;;;5025102;28;20245;-74
2022/05/15 00:29:28;;;;;;;15.80;8.83;;;;;;;;;;5022154;28;20216;-74
2022/05/15 00:31:55;;;;;;;16.47;9.23;;;;;;;;;;5025591;28;20210;-74
2022/05/15 00:34:22;;;;;;;18.90;8.53;;;;;;;;;;5024064;28;20203;-74
2022/05/15 00:36:51;;;;;;;13.33;9.07;;;;;;;;;;5023726;28;20728;-75
2022/05/15 00:39:19;;;;;;;15.23;8.97;;;;;;;;;;5023999;28;20211;-73
2022/05/15 00:41:46;;;;;;;14.10;9.20;;;;;;;;;;5022372;28;20298;-73
2022/05/15 00:44:13;;;;;;;17.33;9.30;;;;;;;;;;5022688;28;20231;-73
2022/05/15 00:46:42;;;;;;;15.10;9.30;;;;;;;;;;5023407;28;20226;-73
2022/05/15 00:49:10;;;;;;;15.33;8.90;;;;;;;;;;5021133;28;20219;-73
2022/05/15 00:51:39;;;;;;;17.87;8.80;;;;;;;;;;5022836;28;20210;-73
2022/05/15 00:54:09;;;;;;;19.27;9.67;;;;;;;;;;5022483;28;20626;-73
2022/05/15 00:56:38;;;;;;;18.53;9.77;;;;;;;;;;5022480;28;20337;-74
2022/05/15 00:59:09;;;;;;;16.13;9.33;;;;;;;;;;5025664;28;20199;-73
2022/05/15 01:01:36;;;;;;;14.73;8.73;;;;;;;;;;5022023;28;20211;-73
2022/05/15 01:04:03;;;;;;;12.53;8.97;;;;;;;;;;5020997;28;20634;-73
2022/05/15 01:06:31;;;;;;;17.50;8.77;;;;;;;;;;5025915;28;20307;-73
2022/05/15 01:08:58;;;;;;;18.27;9.60;;;;;;;;;;5025089;28;20314;-73
2022/05/15 01:11:27;;;;;;;16.60;8.83;;;;;;;;;;5021286;28;20257;-73
2022/05/15 01:13:54;;;;;;;12.13;8.37;;;;;;;;;;5023453;28;20240;-73
2022/05/15 01:16:23;;;;;;;19.27;9.60;;;;;;;;;;5027052;28;20310;-73
2022/05/15 01:18:50;;;;;;;13.80;9.20;;;;;;;;;;5025924;28;20244;-73
2022/05/15 01:21:30;;;;;;;15.13;9.40;;;;;;;;;;5026377;28;20277;-73
2022/05/15 01:23:57;;;;;;;16.40;9.80;;;;;;;;;;5026416;28;20203;-73
2022/05/15 01:26:26;;;;;;;15.87;9.63;;;;;;;;;;5027386;28;20681;-73
2022/05/15 01:28:53;;;;;;;14.80;9.30;;;;;;;;;;5027873;28;20219;-73
2022/05/15 01:31:21;;;;;;;16.73;9.70;;;;;;;;;;5027873;28;20228;-73
2022/05/15 01:33:49;;;;;;;18.10;9.87;;;;;;;;;;5024107;28;20306;-73
2022/05/15 01:36:17;;;;;;;18.53;9.73;;;;;;;;;;5026723;28;20231;-73
2022/05/15 01:38:45;;;;;;;16.07;9.10;;;;;;;;;;5026799;28;20204;-73
2022/05/15 01:41:12;;;;;;;16.77;9.73;;;;;;;;;;5026504;28;20215;-73
2022/05/15 01:43:40;;;;;;;18.00;10.13;;;;;;;;;;5026749;28;20216;-73
2022/05/15 01:46:08;;;;;;;16.23;10.10;;;;;;;;;;5027084;28;20818;-73
2022/05/15 01:48:35;;;;;;;15.90;10.03;;;;;;;;;;5023539;28;20702;-73
2022/05/15 01:51:02;;;;;;;16.47;9.30;;;;;;;;;;5025147;28;20291;-73
2022/05/15 01:53:30;;;;;;;18.57;9.83;;;;;;;;;;5025338;28;20212;-73
2022/05/15 01:55:58;;;;;;;14.93;9.80;;;;;;;;;;5024750;28;20244;-74
2022/05/15 01:58:26;;;;;;;16.33;9.27;;;;;;;;;;5026603;28;20849;-73
2022/05/15 02:00:53;;;;;;;15.27;9.00;;;;;;;;;;5025595;28;20295;-73
2022/05/15 02:03:20;;;;;;;16.13;8.50;;;;;;;;;;5025220;28;20203;-73
2022/05/15 02:05:47;;;;;;;13.37;9.03;;;;;;;;;;5026036;28;20310;-72
2022/05/15 02:08:14;;;;;;;17.80;9.20;;;;;;;;;;5023720;28;20236;-73
2022/05/15 02:10:41;;;;;;;13.27;8.33;;;;;;;;;;5022645;28;20681;-73
2022/05/15 02:13:10;;;;;;;16.53;9.97;;;;;;;;;;5026986;28;20211;-73
2022/05/15 02:15:37;;;;;;;14.80;9.60;;;;;;;;;;5024709;28;20322;-73
2022/05/15 02:18:05;;;;;;;15.67;9.80;;;;;;;;;;5023484;28;20205;-73
2022/05/15 02:20:32;;;;;;;15.63;9.53;;;;;;;;;;5025617;28;20215;-73
2022/05/15 02:22:59;;;;;;;14.90;9.37;;;;;;;;;;5021211;28;20765;-73
2022/05/15 02:25:27;;;;;;;15.33;9.23;;;;;;;;;;5025489;28;20258;-73
2022/05/15 02:27:55;;;;;;;12.70;9.03;;;;;;;;;;5024041;28;20677;-73
2022/05/15 02:30:24;;;;;;;16.60;10.10;;;;;;;;;;5024036;28;20212;-73
2022/05/15 02:32:51;;;;;;;18.43;9.73;;;;;;;;;;5025842;28;20203;-73
2022/05/15 02:35:18;;;;;;;17.13;9.73;;;;;;;;;;5023454;28;20231;-72
2022/05/15 02:37:47;;;;;;;18.67;9.23;;;;;;;;;;5022705;28;20215;-73
2022/05/15 02:40:15;;;;;;;14.70;10.13;;;;;;;;;;5026256;28;20204;-73
2022/05/15 02:42:42;;;;;;;17.43;9.70;;;;;;;;;;5020612;28;20235;-73
2022/05/15 02:45:10;;;;;;;18.17;8.90;;;;;;;;;;5026042;28;20322;-73
2022/05/15 02:47:38;;;;;;;15.13;8.87;;;;;;;;;;5025286;28;20244;-73
2022/05/15 02:52:53;;;;;;;21.07;9.03;;;;;;;;;;5024908;28;20210;-73
2022/05/15 02:55:21;;;;;;;15.47;8.93;;;;;;;;;;5022176;28;20293;-74
2022/05/15 02:57:48;;;;;;;16.13;9.00;;;;;;;;;;5022214;28;20291;-74
2022/05/15 03:00:16;;;;;;;14.50;8.87;;;;;;;;;;5026167;28;20592;-73
2022/05/15 03:02:45;;;;;;;14.03;9.20;;;;;;;;;;5026482;28;20211;-73
2022/05/15 03:05:13;;;;;;;15.27;8.77;;;;;;;;;;5022535;28;20319;-73
2022/05/15 03:07:42;;;;;;;14.77;8.37;;;;;;;;;;5022880;28;20645;-73
2022/05/15 03:10:10;;;;;;;18.43;8.20;;;;;;;;;;5021247;28;20262;-73
2022/05/15 03:12:37;;;;;;;16.13;9.57;;;;;;;;;;5022859;28;20206;-73
2022/05/15 03:15:05;;;;;;;13.40;8.73;;;;;;;;;;5023256;28;20223;-73
2022/05/15 03:17:32;;;;;;;14.90;9.00;;;;;;;;;;5023466;28;20302;-72
2022/05/15 03:20:01;;;;;;;15.23;9.37;;;;;;;;;;5023965;28;20212;-73
2022/05/15 03:22:28;;;;;;;13.73;8.77;;;;;;;;;;5025431;28;20235;-73
2022/05/15 03:24:55;;;;;;;18.37;9.83;;;;;;;;;;5020604;28;20227;-73
2022/05/15 03:27:22;;;;;;;18.63;9.47;;;;;;;;;;5021823;28;20216;-73
2022/05/15 03:29:50;;;;;;;14.27;8.90;;;;;;;;;;5022226;28;20241;-73
2022/05/15 03:32:17;;;;;;;14.77;9.40;;;;;;;;;;5023330;28;20203;-72
2022/05/15 03:34:44;;;;;;;14.60;9.40;;;;;;;;;;5024369;28;20200;-73
2022/05/15 03:37:12;;;;;;;13.30;8.93;;;;;;;;;;5025736;28;20586;-73
2022/05/15 03:39:40;;;;;;;12.73;8.87;;;;;;;;;;5021749;28;20294;-73
2022/05/15 03:42:07;;;;;;;13.77;9.03;;;;;;;;;;5028233;28;20294;-73
2022/05/15 03:44:37;;;;;;;15.60;9.37;;;;;;;;;;5023255;28;20317;-73
2022/05/15 03:47:04;;;;;;;14.83;8.33;;;;;;;;;;5023405;28;20208;-74
2022/05/15 03:49:31;;;;;;;18.87;9.43;;;;;;;;;;5026340;28;20216;-73
2022/05/15 03:51:59;;;;;;;12.70;8.70;;;;;;;;;;5024226;28;20208;-73
2022/05/15 03:54:27;;;;;;;13.67;9.17;;;;;;;;;;5019545;28;20244;-73
2022/05/15 03:56:54;;;;;;;14.30;8.43;;;;;;;;;;5022071;28;20228;-72
2022/05/15 03:59:23;;;;;;;15.63;8.37;;;;;;;;;;5022291;28;20223;-73
2022/05/15 04:01:50;;;;;;;12.60;8.40;;;;;;;;;;5026032;28;20283;-73
2022/05/15 04:04:17;;;;;;;15.37;8.60;;;;;;;;;;5023260;28;20765;-72
2022/05/15 04:06:45;;;;;;;13.03;8.23;;;;;;;;;;5019632;28;20354;-73
2022/05/15 04:09:12;;;;;;;17.50;9.20;;;;;;;;;;5021273;28;20604;-73
2022/05/15 04:11:41;;;;;;;15.17;8.40;;;;;;;;;;5023899;28;20204;-73
2022/05/15 04:14:08;;;;;;;13.90;8.00;;;;;;;;;;5018493;28;20330;-72
2022/05/15 04:16:35;;;;;;;11.63;7.57;;;;;;;;;;5020786;28;20219;-73
2022/05/15 04:19:03;;;;;;;12.93;6.97;;;;;;;;;;5020513;28;20550;-73
2022/05/15 04:21:36;;;;;;;11.07;7.37;;;;;;;;;;5019082;28;20215;-74
2022/05/15 04:24:04;;;;;;;10.47;6.70;;;;;;;;;;5021295;28;20216;-73
2022/05/15 04:26:31;;;;;;;11.00;6.90;;;;;;;;;;5015880;28;20323;-74
2022/05/15 04:28:59;;;;;;;15.30;7.13;;;;;;;;;;5022881;28;20262;-73
2022/05/15 04:31:26;;;;;;;8.30;5.77;;;;;;;;;;5021919;28;20244;-73
2022/05/15 04:33:54;;;;;;;11.30;6.33;;;;;;;;;;5022677;28;20326;-74
2022/05/15 04:36:21;;;;;;;11.60;5.70;;;;;;;;;;5018482;28;20226;-73
2022/05/15 04:38:48;;;;;;;10.47;5.70;;;;;;;;;;5021307;28;20207;-73
2022/05/15 04:41:15;;;;;;;13.50;5.73;;;;;;;;;;5023056;28;20706;-73
2022/05/15 04:43:42;;;;;;;10.97;5.23;;;;;;;;;;5019846;28;20215;-73
2022/05/15 04:46:11;;;;;;;12.53;5.80;;;;;;;;;;5020169;28;20323;-74
2022/05/15 04:48:38;;;;;;;7.70;4.37;;;;;;;;;;5020404;28;20294;-74
2022/05/15 04:51:06;;;;;;;8.10;4.97;;;;;;;;;;5025744;28;20207;-74
2022/05/15 04:53:33;;;;;;;9.23;5.10;;;;;;;;;;5027681;28;20625;-74
2022/05/15 04:56:01;;;;;;;8.47;4.80;;;;;;;;;;5025247;28;20322;-74
2022/05/15 04:58:28;;;;;;;10.13;5.40;;;;;;;;;;5025710;28;20581;-74
2022/05/15 05:00:56;;;;;;;10.50;4.80;;;;;;;;;;5025418;28;20210;-74
2022/05/15 05:03:24;;;;;;;10.90;5.00;;;;;;;;;;5029725;28;20677;-74
2022/05/15 05:05:52;;;;;;;7.13;4.57;;;;;;;;;;5026983;28;20713;-74
2022/05/15 05:08:19;;;;;;;7.43;4.30;;;;;;;;;;5027824;28;20624;-74
2022/05/15 05:10:47;;;;;;;8.30;4.63;;;;;;;;;;5027707;28;20322;-74
2022/05/15 05:13:14;;;;;;;9.60;4.37;;;;;;;;;;5028211;28;20213;-73
2022/05/15 05:15:41;;;;;;;11.00;4.43;;;;;;;;;;5025436;28;20226;-74
2022/05/15 05:18:08;;;;;;;6.57;4.10;;;;;;;;;;5026543;28;20298;-73
2022/05/15 05:20:37;;;;;;;8.40;4.80;;;;;;;;;;5027292;28;20204;-73
2022/05/15 05:23:04;;;;;;;7.77;4.43;;;;;;;;;;5024867;28;20640;-74
2022/05/15 05:25:31;;;;;;;7.17;4.17;;;;;;;;;;5023823;28;20240;-74
2022/05/15 05:27:59;;;;;;;6.87;4.47;;;;;;;;;;5024700;28;20219;-74
2022/05/15 05:30:27;;;;;;;11.53;4.77;;;;;;;;;;5025260;28;20611;-74
2022/05/15 05:32:55;;;;;;;7.40;4.23;;;;;;;;;;5024631;28;20223;-73
2022/05/15 05:35:23;;;;;;;6.00;4.50;;;;;;;;;;5027141;28;20230;-74
2022/05/15 05:37:52;;;;;;;7.83;4.40;;;;;;;;;;5024528;28;20287;-74
2022/05/15 05:40:20;;;;;;;7.03;4.33;;;;;;;;;;5024725;28;20242;-74
2022/05/15 05:42:47;;;;;;;7.87;4.23;;;;;;;;;;5025238;28;20223;-74
2022/05/15 05:45:14;;;;;;;9.83;4.60;;;;;;;;;;5023806;28;20319;-74
2022/05/15 05:47:42;;;;;;;11.57;4.40;;;;;;;;;;5024267;28;20208;-74
2022/05/15 05:50:09;;;;;;;11.27;4.57;;;;;;;;;;5023635;28;20226;-74
2022/05/15 05:52:37;;;;;;;9.93;4.23;;;;;;;;;;5025227;28;20266;-74
2022/05/15 05:55:06;;;;;;;8.57;4.30;;;;;;;;;;5025274;28;20236;-74
2022/05/15 05:57:33;;;;;;;8.43;4.50;;;;;;;;;;5026593;28;20299;-74
2022/05/15 06:00:00;;;;;;;6.47;4.37;;;;;;;;;;5025645;28;20203;-74
2022/05/15 06:02:27;;;;;;;12.03;4.53;;;;;;;;;;5025456;28;20207;-74
2022/05/15 06:04:53;;;;;;;7.93;4.13;;;;;;;;;;5025928;28;20298;-74
2022/05/15 06:07:22;;;;;;;9.17;4.50;;;;;;;;;;5026404;28;20279;-74
2022/05/15 06:09:50;;;;;;;10.87;4.53;;;;;;;;;;5026734;28;20219;-74
2022/05/15 06:12:20;;;;;;;7.30;3.90;;;;;;;;;;5024082;28;20207;-74
2022/05/15 06:14:47;;;;;;;8.73;4.43;;;;;;;;;;5025727;28;20576;-74
2022/05/15 06:17:14;;;;;;;6.93;4.23;;;;;;;;;;5024069;28;20234;-74
2022/05/15 06:19:41;;;;;;;5.93;3.50;;;;;;;;;;5026169;28;20206;-74
2022/05/15 06:22:09;;;;;;;7.20;4.00;;;;;;;;;;5022650;28;20220;-74
2022/05/15 06:24:36;;;;;;;7.53;3.80;;;;;;;;;;5026791;28;20207;-74
2022/05/15 06:27:03;;;;;;;7.27;4.03;;;;;;;;;;5022240;28;20204;-74
2022/05/15 06:29:32;;;;;;;7.53;3.77;;;;;;;;;;5020071;28;20317;-74
2022/05/15 06:32:00;;;;;;;6.63;3.70;;;;;;;;;;5024354;28;20213;-74
2022/05/15 06:34:27;;;;;;;11.57;4.10;;;;;;;;;;5024746;28;20250;-72
2022/05/15 06:36:54;;;;;;;9.03;3.30;;;;;;;;;;5024669;28;20312;-72
2022/05/15 06:39:21;;;;;;;7.97;3.43;;;;;;;;;;5025828;28;20196;-72
2022/05/15 06:41:50;;;;;;;6.93;3.57;;;;;;;;;;5023711;28;20199;-73
2022/05/15 06:44:17;;;;;;;9.00;3.70;;;;;;;;;;5027548;28;20525;-73
2022/05/15 06:46:46;;;;;;;11.67;3.53;;;;;;;;;;5025894;28;20228;-74
2022/05/15 06:49:13;;;;;;;11.47;3.40;;;;;;;;;;5026578;28;20632;-75
2022/05/15 06:51:41;;;;;;;10.03;3.50;;;;;;;;;;5026567;28;20615;-74
2022/05/15 06:54:08;;;;;;;7.87;3.27;;;;;;;;;;5024655;28;20214;-74
2022/05/15 06:59:20;;;;;;;9.47;3.30;;;;;;;;;;5024686;28;20206;-73
2022/05/15 07:01:48;;;;;;;8.03;3.40;;;;;;;;;;5027467;28;20330;-73
2022/05/15 07:04:16;;;;;;;12.93;4.10;;;;;;;;;;5022554;28;20246;-73
2022/05/15 07:06:43;;;;;;;13.37;3.63;;;;;;;;;;5020334;28;20231;-73
2022/05/15 07:09:10;;;;;;;6.80;3.10;;;;;;;;;;5019605;28;20210;-73
2022/05/15 07:11:39;;;;;;;10.90;3.17;;;;;;;;;;5021812;28;20329;-72
2022/05/15 07:14:06;;;;;;;7.43;3.53;;;;;;;;;;5021066;28;20201;-72
2022/05/15 07:16:33;;;;;;;10.90;3.50;;;;;;;;;;5023453;28;20221;-72
2022/05/15 07:19:02;;;;;;;10.17;3.50;;;;;;;;;;5019867;28;20208;-73
2022/05/15 07:21:29;;;;;;;10.47;3.33;;;;;;;;;;5025510;28;20288;-72
2022/05/15 07:23:56;;;;;;;10.90;3.17;;;;;;;;;;5019585;28;20212;-73
2022/05/15 07:26:24;;;;;;;14.07;3.20;;;;;;;;;;5022200;28;20233;-73
2022/05/15 07:28:51;;;;;;;11.43;3.50;;;;;;;;;;5019687;28;20216;-73
2022/05/15 07:31:19;;;;;;;11.70;3.17;;;;;;;;;;5021544;28;20640;-74
2022/05/15 07:33:47;;;;;;;10.33;3.27;;;;;;;;;;5023041;28;20200;-73
2022/05/15 07:36:16;;;;;;;9.40;2.90;;;;;;;;;;5021524;28;20230;-74
2022/05/15 07:38:43;;;;;;;10.97;3.50;;;;;;;;;;5022543;28;20220;-73
2022/05/15 07:41:10;;;;;;;10.97;3.30;;;;;;;;;;5023221;28;20299;-73
2022/05/15 07:43:39;;;;;;;8.07;2.90;;;;;;;;;;5025489;28;20214;-74
2022/05/15 07:46:06;;;;;;;7.33;2.77;;;;;;;;;;5020582;28;20226;-73
2022/05/15 07:48:33;;;;;;;12.27;2.80;;;;;;;;;;5022247;28;20535;-73
2022/05/15 07:51:00;;;;;;;6.57;2.97;;;;;;;;;;5021985;28;20228;-73
2022/05/15 07:53:29;;;;;;;7.00;2.70;;;;;;;;;;5020749;28;20255;-74
2022/05/15 07:55:59;;;;;;;12.43;3.23;;;;;;;;;;5020888;28;20239;-74
2022/05/15 07:58:26;;;;;;;13.07;3.37;;;;;;;;;;5021368;28;20204;-74
2022/05/15 08:00:53;;;;;;;9.77;2.80;;;;;;;;;;5019219;28;20254;-73
2022/05/15 08:03:21;;;;;;;7.80;3.10;;;;;;;;;;5021634;28;20646;-73
2022/05/15 08:08:34;;;;;;;9.37;2.60;;;;;;;;;;5023781;28;20322;-73
2022/05/15 08:11:02;;;;;;;7.93;2.83;;;;;;;;;;5021037;28;20310;-73
2022/05/15 08:13:30;;;;;;;9.57;2.80;;;;;;;;;;5025971;28;20214;-73
2022/05/15 08:15:58;;;;;;;8.43;2.90;;;;;;;;;;5019416;28;20232;-73
2022/05/15 08:23:56;;;;;;;7.43;2.50;;;;;;;;;;5018403;28;20697;-73
2022/05/15 08:26:23;;;;;;;11.00;3.23;;;;;;;;;;5025401;28;20306;-73
2022/05/15 08:28:51;;;;;;;11.23;2.83;;;;;;;;;;5023921;28;20223;-73
2022/05/15 08:31:19;;;;;;;10.13;3.27;;;;;;;;;;5023157;28;20235;-73
2022/05/15 08:33:46;;;;;;;6.33;2.50;;;;;;;;;;5024823;28;20239;-74
2022/05/15 08:36:14;;;;;;;10.00;2.97;;;;;;;;;;5024004;28;20260;-73
2022/05/15 08:38:43;;;;;;;9.67;2.40;;;;;;;;;;5025439;28;20208;-73
2022/05/15 08:41:17;;;;;;;8.33;2.83;;;;;;;;;;5026325;28;20701;-73
2022/05/15 08:43:45;;;;;;;11.90;3.23;;;;;;;;;;5025098;28;20204;-73
2022/05/15 08:46:19;;;;;;;7.47;2.50;;;;;;;;;;5023367;28;20229;-73
2022/05/15 08:48:46;;;;;;;8.67;3.10;;;;;;;;;;5023646;28;20213;-73
2022/05/15 08:51:14;;;;;;;8.97;2.90;;;;;;;;;;5024413;28;20316;-73
2022/05/15 08:53:43;;;;;;;4.17;2.37;;;;;;;;;;5021841;28;20241;-73
2022/05/15 08:56:13;;;;;;;10.17;3.40;;;;;;;;;;5022786;28;20268;-74
2022/05/15 08:58:46;;;;;;;13.17;2.83;;;;;;;;;;5021431;28;20291;-73
2022/05/15 09:01:14;;;;;;;12.23;2.97;;;;;;;;;;5024337;28;20211;-73
2022/05/15 09:03:42;;;;;;;8.27;2.60;;;;;;;;;;5024492;28;20293;-73
2022/05/15 09:06:11;;;;;;;9.87;3.37;;;;;;;;;;5021313;28;20221;-73
2022/05/15 09:09:00;;;;;;;7.33;2.37;;;;;;;;;;5024543;28;20285;-73
2022/05/15 09:11:39;;;;;;;8.90;2.43;;;;;;;;;;5026496;28;20236;-73
2022/05/15 09:14:12;;;;;;;13.40;3.03;;;;;;;;;;5023010;28;20200;-73
2022/05/15 09:16:42;;;;;;;5.93;2.30;;;;;;;;;;5025898;28;20228;-73
2022/05/15 09:19:09;;;;;;;11.90;2.80;;;;;;;;;;5026660;28;20211;-72
2022/05/15 09:21:36;;;;;;;7.67;2.60;;;;;;;;;;5028344;28;20196;-73
2022/05/15 09:24:06;;;;;;;8.33;2.50;;;;;;;;;;5026167;28;20294;-73
2022/05/15 09:26:44;;;;;;;5.40;2.60;;;;;;;;;;5025680;28;20232;-74
2022/05/15 09:29:17;;;;;;;5.97;2.37;;;;;;;;;;5024485;28;20293;-73
2022/05/15 09:31:44;;;;;;;8.57;2.60;;;;;;;;;;5025467;28;20323;-73
2022/05/15 09:34:15;;;;;;;7.73;2.00;;;;;;;;;;5024826;28;20295;-74
2022/05/15 09:36:43;;;;;;;7.27;2.50;;;;;;;;;;5026417;28;20407;-74
2022/05/15 09:39:11;;;;;;;9.60;2.87;;;;;;;;;;5024986;28;20199;-73
2022/05/15 09:44:28;;;;;;;9.07;4.40;;;;;;;;;;5023598;28;20301;-73
2022/05/15 09:47:00;;;;;;;9.97;2.30;;;;;;;;;;5024684;28;20223;-73
2022/05/15 09:49:28;;;;;;;10.33;2.50;;;;;;;;;;5025180;28;20206;-74
2022/05/15 09:51:57;;;;;;;7.20;2.73;;;;;;;;;;5025768;28;20220;-74
2022/05/15 09:54:32;;;;;;;10.43;4.90;;;;;;;;;;5024100;28;20338;-74
2022/05/15 09:57:20;;;;;;;8.53;4.53;;;;;;;;;;5025397;28;20316;-73
2022/05/15 09:59:58;;;;;;;14.93;8.33;;;;;;;;;;5019385;28;20295;-74
2022/05/15 10:02:26;;;;;;;9.77;4.13;;;;;;;;;;5023883;28;20245;-73
2022/05/15 10:04:54;;;;;;;10.87;5.97;;;;;;;;;;5024268;28;20223;-73
2022/05/15 10:07:31;;;;;;;16.37;4.87;;;;;;;;;;5024710;28;20207;-73
2022/05/15 10:10:12;;;;;;;12.33;2.70;;;;;;;;;;5024664;28;20211;-74
2022/05/15 10:12:40;;;;;;;11.07;2.97;;;;;;;;;;5024334;28;20225;-74
2022/05/15 10:15:10;;;;;;;8.07;3.13;;;;;;;;;;5025238;28;20264;-74
2022/05/15 10:17:40;;;;;;;6.13;2.20;;;;;;;;;;5024111;28;20215;-74
2022/05/15 10:20:11;;;;;;;4.60;2.87;;;;;;;;;;5024824;28;20204;-73
2022/05/15 10:22:40;;;;;;;27.37;16.43;;;;;;;;;;5025194;28;21287;-73
2022/05/15 10:25:14;;;;;;;13.00;7.00;;;;;;;;;;5023865;28;21532;-73
2022/05/15 10:27:43;;;;;;;7.83;3.83;;;;;;;;;;5024490;28;20255;-73
2022/05/15 10:30:13;;;;;;;8.73;2.53;;;;;;;;;;5025638;28;20308;-73
2022/05/15 10:32:42;;;;;;;7.87;3.67;;;;;;;;;;5026073;28;20242;-73
2022/05/15 10:35:11;;;;;;;12.83;6.50;;;;;;;;;;5022512;28;20228;-73
2022/05/15 10:37:57;;;;;;;9.37;4.40;;;;;;;;;;5024689;28;20615;-73
2022/05/15 10:40:27;;;;;;;11.23;5.57;;;;;;;;;;5026632;28;20708;-74
2022/05/15 10:43:05;;;;;;;6.67;2.30;;;;;;;;;;5024502;28;20204;-73
2022/05/15 10:45:35;;;;;;;6.27;2.20;;;;;;;;;;5024841;28;20230;-74
2022/05/15 10:48:06;;;;;;;8.67;4.80;;;;;;;;;;5023402;28;20208;-74
2022/05/15 10:50:43;;;;;;;8.43;2.47;;;;;;;;;;5025844;28;20238;-73
2022/05/15 10:58:54;;;;;;;9.17;2.73;;;;;;;;;;5024657;28;20694;-73
2022/05/15 11:01:25;;;;;;;11.00;2.17;;;;;;;;;;5023807;28;20852;-73
2022/05/15 11:04:00;;;;;;;10.00;2.27;;;;;;;;;;5023050;28;20205;-73
2022/05/15 11:06:40;;;;;;;8.73;2.33;;;;;;;;;;5021635;28;20230;-74
2022/05/15 11:09:11;;;;;;;12.50;3.50;;;;;;;;;;5023295;28;20568;-74
2022/05/15 11:11:46;;;;;;;8.53;2.30;;;;;;;;;;5023132;28;20224;-73
2022/05/15 11:14:17;;;;;;;13.57;4.17;;;;;;;;;;5019911;28;20223;-73
2022/05/15 11:16:51;;;;;;;13.50;7.17;;;;;;;;;;5018461;28;20219;-73
2022/05/15 11:19:24;;;;;;;22.10;13.17;;;;;;;;;;5018449;28;21016;-73
2022/05/15 11:21:56;;;;;;;8.80;2.30;;;;;;;;;;5021073;28;20201;-74
2022/05/15 11:24:30;;;;;;;7.50;2.43;;;;;;;;;;5023919;28;20207;-74
2022/05/15 11:26:59;;;;;;;17.57;9.63;;;;;;;;;;5020650;28;20253;-73
2022/05/15 11:29:27;;;;;;;13.40;5.53;;;;;;;;;;5019371;28;20807;-73
2022/05/15 11:31:57;;;;;;;9.40;2.10;;;;;;;;;;5022038;28;20804;-75
2022/05/15 11:34:52;;;;;;;8.70;2.10;;;;;;;;;;5021177;28;20209;-74
2022/05/15 11:37:34;;;;;;;11.17;5.50;;;;;;;;;;5024731;28;20231;-73
2022/05/15 11:40:01;;;;;;;9.17;2.53;;;;;;;;;;5024288;28;20209;-74
2022/05/15 11:42:28;;;;;;;8.90;2.87;;;;;;;;;;5024047;28;20208;-73
2022/05/15 11:44:56;;;;;;;6.63;2.50;;;;;;;;;;5024404;28;20231;-73
2022/05/15 11:47:29;;;;;;;12.03;4.50;;;;;;;;;;5021949;28;20295;-73
2022/05/15 11:50:01;;;;;;;7.23;3.30;;;;;;;;;;5023366;28;20204;-73
2022/05/15 11:52:37;;;;;;;5.00;2.13;;;;;;;;;;5020869;28;20225;-74
2022/05/15 11:55:19;;;;;;;5.87;2.10;;;;;;;;;;5023193;28;20239;-73
2022/05/15 11:57:46;;;;;;;3.90;2.10;;;;;;;;;;5019198;28;20204;-73
2022/05/15 12:00:22;;;;;;;10.93;4.93;;;;;;;;;;5019760;28;20250;-74
2022/05/15 12:02:53;;;;;;;7.67;2.63;;;;;;;;;;5019648;28;20228;-74
2022/05/15 12:05:25;;;;;;;8.23;2.23;;;;;;;;;;5018815;28;20228;-74
2022/05/15 12:07:53;;;;;;;8.20;3.60;;;;;;;;;;5019644;28;20198;-73
2022/05/15 12:10:22;;;;;;;8.30;3.10;;;;;;;;;;5022079;28;20205;-73
2022/05/15 12:13:01;;;;;;;7.37;2.40;;;;;;;;;;5020265;28;20235;-73
2022/05/15 12:15:37;;;;;;;12.73;5.13;;;;;;;;;;5020483;28;20257;-72
2022/05/15 12:18:13;;;;;;;6.17;3.10;;;;;;;;;;5021650;28;20202;-73
2022/05/15 12:20:47;;;;;;;13.50;8.13;;;;;;;;;;5022304;28;20266;-74
2022/05/15 12:23:17;;;;;;;12.23;4.37;;;;;;;;;;5025100;28;20246;-73
2022/05/15 12:25:48;;;;;;;5.87;2.43;;;;;;;;;;5020830;28;20319;-73
2022/05/15 12:31:05;;;;;;;7.00;2.33;;;;;;;;;;5024899;28;20218;-73
2022/05/15 12:33:40;;;;;;;6.67;2.67;;;;;;;;;;5024565;28;20215;-73
2022/05/15 12:36:11;;;;;;;12.10;2.73;;;;;;;;;;5022503;28;20232;-74
2022/05/15 12:38:40;;;;;;;8.17;2.50;;;;;;;;;;5021969;28;20214;-73
2022/05/15 12:41:09;;;;;;;6.93;2.27;;;;;;;;;;5023921;28;20219;-73
2022/05/15 12:43:40;;;;;;;7.00;2.10;;;;;;;;;;5019828;28;20251;-73
2022/05/15 12:46:08;;;;;;;4.93;1.87;;;;;;;;;;5025690;28;20744;-73
2022/05/15 12:48:38;;;;;;;4.37;1.90;;;;;;;;;;5021479;28;20215;-72
2022/05/15 12:51:08;;;;;;;6.50;1.93;;;;;;;;;;5025214;28;20218;-73
2022/05/15 12:53:39;;;;;;;5.53;2.10;;;;;;;;;;5020903;28;20240;-74
2022/05/15 12:56:11;;;;;;;7.37;2.00;;;;;;;;;;5022053;28;20242;-73
2022/05/15 12:58:38;;;;;;;8.87;2.10;;;;;;;;;;5021109;28;20288;-74
2022/05/15 13:01:06;;;;;;;8.33;2.00;;;;;;;;;;5024646;28;20270;-74
2022/05/15 13:03:33;;;;;;;5.17;2.00;;;;;;;;;;5021802;28;20292;-74
2022/05/15 13:06:03;;;;;;;7.07;2.17;;;;;;;;;;5024140;28;20231;-73
2022/05/15 13:08:43;;;;;;;4.13;1.80;;;;;;;;;;5022549;28;20298;-74
2022/05/15 13:11:11;;;;;;;5.10;2.20;;;;;;;;;;5024931;28;20303;-74
2022/05/15 13:13:40;;;;;;;13.73;1.97;;;;;;;;;;5025145;28;20280;-74
2022/05/15 13:16:09;;;;;;;5.87;1.77;;;;;;;;;;5027795;28;20371;-75
2022/05/15 13:18:37;;;;;;;3.70;1.80;;;;;;;;;;5029866;28;20315;-74
2022/05/15 13:21:08;;;;;;;8.23;2.10;;;;;;;;;;5028137;28;20574;-73
2022/05/15 13:23:37;;;;;;;11.10;2.00;;;;;;;;;;5027855;28;20235;-74
2022/05/15 13:26:05;;;;;;;7.17;1.83;;;;;;;;;;5026748;28;20282;-74
2022/05/15 13:28:33;;;;;;;5.27;1.83;;;;;;;;;;5026629;28;20214;-74
2022/05/15 13:31:00;;;;;;;8.23;1.87;;;;;;;;;;5027514;28;20349;-74
2022/05/15 13:33:29;;;;;;;6.40;1.60;;;;;;;;;;5025981;28;20232;-74
2022/05/15 13:35:57;;;;;;;4.70;2.07;;;;;;;;;;5027751;28;20239;-74
2022/05/15 13:38:28;;;;;;;5.97;2.00;;;;;;;;;;5025335;28;20211;-73
2022/05/15 13:43:50;;;;;;;6.33;1.97;;;;;;;;;;5027223;28;20213;-74
2022/05/15 13:46:20;;;;;;;7.93;2.10;;;;;;;;;;5026606;28;20239;-74
2022/05/15 13:48:52;;;;;;;8.00;2.00;;;;;;;;;;5029514;28;20398;-73
2022/05/15 13:51:30;;;;;;;4.33;1.90;;;;;;;;;;5024040;28;20248;-74
2022/05/15 13:54:07;;;;;;;6.60;2.03;;;;;;;;;;5026767;28;20286;-74
2022/05/15 13:56:35;;;;;;;6.83;1.83;;;;;;;;;;5025321;28;20322;-73
2022/05/15 13:59:02;;;;;;;5.30;1.87;;;;;;;;;;5027146;28;20649;-74
2022/05/15 14:01:30;;;;;;;7.43;2.00;;;;;;;;;;5028245;28;20219;-74
2022/05/15 14:03:58;;;;;;;8.97;1.90;;;;;;;;;;5026284;28;20654;-74
2022/05/15 14:06:28;;;;;;;8.77;2.10;;;;;;;;;;5027701;28;20704;-74
2022/05/15 14:09:00;;;;;;;3.27;1.53;;;;;;;;;;5026294;28;20217;-74
2022/05/15 14:11:30;;;;;;;5.17;1.97;;;;;;;;;;5026457;28;20237;-74
2022/05/15 14:13:57;;;;;;;4.63;1.80;;;;;;;;;;5027663;28;20658;-74
2022/05/15 14:16:26;;;;;;;4.83;2.10;;;;;;;;;;5026234;28;20273;-74
2022/05/15 14:18:54;;;;;;;5.17;1.80;;;;;;;;;;5024667;28;20217;-74
2022/05/15 14:21:22;;;;;;;6.67;1.83;;;;;;;;;;5025800;28;20588;-74
2022/05/15 14:23:49;;;;;;;7.27;1.80;;;;;;;;;;5024297;28;20199;-73
2022/05/15 14:26:17;;;;;;;4.63;1.80;;;;;;;;;;5025624;28;20320;-73
2022/05/15 14:28:47;;;;;;;7.30;1.80;;;;;;;;;;5022944;28;20216;-73
2022/05/15 14:31:15;;;;;;;7.40;2.77;;;;;;;;;;5025610;28;20597;-74
2022/05/15 14:33:43;;;;;;;6.13;2.37;;;;;;;;;;5022691;28;20238;-74
2022/05/15 14:36:11;;;;;;;4.73;2.00;;;;;;;;;;5025604;28;20235;-74
2022/05/15 14:38:39;;;;;;;6.90;2.00;;;;;;;;;;5020988;28;20212;-74
2022/05/15 14:41:06;;;;;;;5.13;1.67;;;;;;;;;;5025994;28;20235;-74
2022/05/15 14:43:35;;;;;;;10.40;2.83;;;;;;;;;;5022110;28;20291;-74
2022/05/15 14:46:07;;;;;;;5.00;2.47;;;;;;;;;;5024544;28;20224;-74
2022/05/15 14:48:35;;;;;;;8.33;4.57;;;;;;;;;;5024988;28;20875;-73
2022/05/15 14:51:05;;;;;;;9.70;2.30;;;;;;;;;;5026445;28;20219;-74
2022/05/15 14:53:34;;;;;;;4.70;1.93;;;;;;;;;;5024495;28;20238;-74
2022/05/15 14:56:10;;;;;;;5.23;1.93;;;;;;;;;;5026342;28;20800;-74
2022/05/15 14:58:42;;;;;;;14.90;7.40;;;;;;;;;;5022748;28;20568;-73
2022/05/15 15:01:10;;;;;;;9.37;2.30;;;;;;;;;;5022171;28;20228;-74
2022/05/15 15:03:38;;;;;;;6.83;2.47;;;;;;;;;;5026015;28;20559;-74
2022/05/15 15:06:06;;;;;;;5.47;2.07;;;;;;;;;;5019962;28;20295;-74
2022/05/15 15:08:33;;;;;;;5.47;2.07;;;;;;;;;;5025243;28;20307;-74
2022/05/15 15:11:11;;;;;;;5.33;2.00;;;;;;;;;;5024245;28;20211;-74
2022/05/15 15:13:39;;;;;;;4.83;1.80;;;;;;;;;;5024138;28;21029;-73
2022/05/15 15:16:07;;;;;;;4.47;1.77;;;;;;;;;;5026122;28;20230;-73